sensor_id;sensor_type;location;lat;lon;timestamp;P1;durP1;ratioP1;P2;durP2;ratioP2
53010;SDS011;42803;55.762;38.084;2023-04-01T00:00:09;17.45;;;7.65;;
53010;SDS011;42803;55.762;38.084;2023-04-01T00:02:39;21.08;;;9.20;;
53010;SDS011;42803;55.762;38.084;2023-04-01T00:05:09;16.92;;;8.45;;
53010;SDS011;42803;55.762;38.084;2023-04-01T00:07:39;18.85;;;8.50;;
53010;SDS011;42803;55.762;38.084;2023-04-01T00:10:11;18.63;;;9.02;;
53010;SDS011;42803;55.762;38.084;2023-04-01T00:12:40;24.23;;;9.88;;
53010;SDS011;42803;55.762;38.084;2023-04-01T00:15:11;22.35;;;8.95;;
53010;SDS011;42803;55.762;38.084;2023-04-01T00:17:41;16.10;;;6.93;;
53010;SDS011;42803;55.762;38.084;2023-04-01T00:20:11;17.75;;;7.78;;
53010;SDS011;42803;55.762;38.084;2023-04-01T00:22:41;16.42;;;7.60;;
53010;SDS011;42803;55.762;38.084;2023-04-01T00:25:13;17.10;;;7.75;;
53010;SDS011;42803;55.762;38.084;2023-04-01T00:27:42;19.58;;;7.57;;
53010;SDS011;42803;55.762;38.084;2023-04-01T00:30:11;16.55;;;8.43;;
53010;SDS011;42803;55.762;38.084;2023-04-01T00:32:40;18.17;;;8.32;;
53010;SDS011;42803;55.762;38.084;2023-04-01T00:35:09;19.75;;;8.93;;
53010;SDS011;42803;55.762;38.084;2023-04-01T00:37:39;23.55;;;9.95;;
53010;SDS011;42803;55.762;38.084;2023-04-01T00:40:11;21.77;;;10.55;;
53010;SDS011;42803;55.762;38.084;2023-04-01T00:42:53;19.95;;;8.73;;
53010;SDS011;42803;55.762;38.084;2023-04-01T00:45:28;19.73;;;9.05;;
53010;SDS011;42803;55.762;38.084;2023-04-01T00:48:03;18.40;;;7.85;;
53010;SDS011;42803;55.762;38.084;2023-04-01T00:50:36;15.85;;;7.47;;
53010;SDS011;42803;55.762;38.084;2023-04-01T00:53:06;18.80;;;7.85;;
53010;SDS011;42803;55.762;38.084;2023-04-01T00:55:39;18.08;;;8.57;;
53010;SDS011;42803;55.762;38.084;2023-04-01T01:00:43;18.05;;;7.97;;
53010;SDS011;42803;55.762;38.084;2023-04-01T01:03:14;23.05;;;8.90;;
53010;SDS011;42803;55.762;38.084;2023-04-01T01:05:52;17.13;;;8.48;;
53010;SDS011;42803;55.762;38.084;2023-04-01T01:08:46;19.85;;;8.82;;
53010;SDS011;42803;55.762;38.084;2023-04-01T01:11:29;23.55;;;9.50;;
53010;SDS011;42803;55.762;38.084;2023-04-01T01:14:24;22.73;;;10.23;;
53010;SDS011;42803;55.762;38.084;2023-04-01T01:17:05;16.90;;;8.45;;
53010;SDS011;42803;55.762;38.084;2023-04-01T01:19:49;13.68;;;7.03;;
53010;SDS011;42803;55.762;38.084;2023-04-01T01:22:52;15.25;;;6.55;;
53010;SDS011;42803;55.762;38.084;2023-04-01T01:25:32;16.83;;;6.80;;
53010;SDS011;42803;55.762;38.084;2023-04-01T01:28:24;14.63;;;6.72;;
53010;SDS011;42803;55.762;38.084;2023-04-01T01:31:07;13.90;;;6.75;;
53010;SDS011;42803;55.762;38.084;2023-04-01T01:33:56;14.30;;;6.82;;
53010;SDS011;42803;55.762;38.084;2023-04-01T01:36:37;15.05;;;7.15;;
53010;SDS011;42803;55.762;38.084;2023-04-01T01:39:10;18.90;;;7.57;;
53010;SDS011;42803;55.762;38.084;2023-04-01T01:41:42;15.82;;;7.13;;
53010;SDS011;42803;55.762;38.084;2023-04-01T01:44:16;15.98;;;6.93;;
53010;SDS011;42803;55.762;38.084;2023-04-01T01:46:47;19.05;;;8.05;;
53010;SDS011;42803;55.762;38.084;2023-04-01T01:49:16;16.20;;;7.95;;
53010;SDS011;42803;55.762;38.084;2023-04-01T01:51:48;19.20;;;8.38;;
53010;SDS011;42803;55.762;38.084;2023-04-01T01:54:17;18.05;;;8.20;;
53010;SDS011;42803;55.762;38.084;2023-04-01T01:56:48;18.17;;;8.07;;
53010;SDS011;42803;55.762;38.084;2023-04-01T01:59:23;16.27;;;8.10;;
53010;SDS011;42803;55.762;38.084;2023-04-01T02:01:54;16.80;;;7.85;;
53010;SDS011;42803;55.762;38.084;2023-04-01T02:04:26;20.58;;;8.77;;
53010;SDS011;42803;55.762;38.084;2023-04-01T02:06:58;19.85;;;8.40;;
53010;SDS011;42803;55.762;38.084;2023-04-01T02:09:30;22.95;;;9.02;;
53010;SDS011;42803;55.762;38.084;2023-04-01T02:12:02;19.55;;;9.18;;
53010;SDS011;42803;55.762;38.084;2023-04-01T02:14:39;17.08;;;8.40;;
53010;SDS011;42803;55.762;38.084;2023-04-01T02:17:13;17.98;;;7.05;;
53010;SDS011;42803;55.762;38.084;2023-04-01T02:19:46;15.63;;;7.72;;
53010;SDS011;42803;55.762;38.084;2023-04-01T02:22:21;17.50;;;7.72;;
53010;SDS011;42803;55.762;38.084;2023-04-01T02:24:53;16.08;;;7.72;;
53010;SDS011;42803;55.762;38.084;2023-04-01T02:27:26;18.35;;;7.80;;
53010;SDS011;42803;55.762;38.084;2023-04-01T02:29:56;21.92;;;9.15;;
53010;SDS011;42803;55.762;38.084;2023-04-01T02:32:26;16.05;;;7.65;;
53010;SDS011;42803;55.762;38.084;2023-04-01T02:34:58;18.38;;;8.05;;
53010;SDS011;42803;55.762;38.084;2023-04-01T02:37:31;16.02;;;7.75;;
53010;SDS011;42803;55.762;38.084;2023-04-01T02:40:04;16.45;;;8.38;;
53010;SDS011;42803;55.762;38.084;2023-04-01T02:42:34;20.48;;;8.90;;
53010;SDS011;42803;55.762;38.084;2023-04-01T02:45:04;22.15;;;9.57;;
53010;SDS011;42803;55.762;38.084;2023-04-01T02:47:34;22.27;;;8.80;;
53010;SDS011;42803;55.762;38.084;2023-04-01T02:50:03;17.60;;;8.35;;
53010;SDS011;42803;55.762;38.084;2023-04-01T02:52:35;20.10;;;8.57;;
53010;SDS011;42803;55.762;38.084;2023-04-01T02:55:05;20.85;;;8.82;;
53010;SDS011;42803;55.762;38.084;2023-04-01T02:57:35;17.70;;;8.50;;
53010;SDS011;42803;55.762;38.084;2023-04-01T03:00:04;18.70;;;8.77;;
53010;SDS011;42803;55.762;38.084;2023-04-01T03:02:38;18.90;;;8.00;;
53010;SDS011;42803;55.762;38.084;2023-04-01T03:05:07;18.60;;;8.18;;
53010;SDS011;42803;55.762;38.084;2023-04-01T03:07:38;18.58;;;8.45;;
53010;SDS011;42803;55.762;38.084;2023-04-01T03:10:08;20.42;;;9.43;;
53010;SDS011;42803;55.762;38.084;2023-04-01T03:12:38;17.73;;;8.15;;
53010;SDS011;42803;55.762;38.084;2023-04-01T03:15:08;18.83;;;8.30;;
53010;SDS011;42803;55.762;38.084;2023-04-01T03:17:39;16.35;;;8.25;;
53010;SDS011;42803;55.762;38.084;2023-04-01T03:20:09;16.35;;;7.65;;
53010;SDS011;42803;55.762;38.084;2023-04-01T03:22:41;18.42;;;8.73;;
53010;SDS011;42803;55.762;38.084;2023-04-01T03:25:10;19.20;;;8.38;;
53010;SDS011;42803;55.762;38.084;2023-04-01T03:27:39;17.95;;;7.68;;
53010;SDS011;42803;55.762;38.084;2023-04-01T03:30:09;16.85;;;7.47;;
53010;SDS011;42803;55.762;38.084;2023-04-01T03:32:47;17.45;;;7.85;;
53010;SDS011;42803;55.762;38.084;2023-04-01T03:35:16;16.20;;;7.25;;
53010;SDS011;42803;55.762;38.084;2023-04-01T03:37:47;16.30;;;7.97;;
53010;SDS011;42803;55.762;38.084;2023-04-01T03:40:16;17.60;;;7.60;;
53010;SDS011;42803;55.762;38.084;2023-04-01T03:42:45;15.43;;;7.03;;
53010;SDS011;42803;55.762;38.084;2023-04-01T03:45:14;16.35;;;7.78;;
53010;SDS011;42803;55.762;38.084;2023-04-01T03:47:43;17.42;;;7.85;;
53010;SDS011;42803;55.762;38.084;2023-04-01T03:50:12;15.13;;;7.65;;
53010;SDS011;42803;55.762;38.084;2023-04-01T03:52:42;13.70;;;6.93;;
53010;SDS011;42803;55.762;38.084;2023-04-01T03:55:12;15.27;;;7.20;;
53010;SDS011;42803;55.762;38.084;2023-04-01T03:57:43;17.23;;;8.02;;
53010;SDS011;42803;55.762;38.084;2023-04-01T04:00:18;16.15;;;6.95;;
53010;SDS011;42803;55.762;38.084;2023-04-01T04:05:28;13.77;;;6.63;;
53010;SDS011;42803;55.762;38.084;2023-04-01T04:07:57;15.98;;;7.25;;
53010;SDS011;42803;55.762;38.084;2023-04-01T04:10:28;17.60;;;7.57;;
53010;SDS011;42803;55.762;38.084;2023-04-01T04:12:57;22.02;;;8.95;;
53010;SDS011;42803;55.762;38.084;2023-04-01T04:15:29;18.25;;;8.90;;
53010;SDS011;42803;55.762;38.084;2023-04-01T04:17:58;15.38;;;7.90;;
53010;SDS011;42803;55.762;38.084;2023-04-01T04:20:27;21.48;;;8.32;;
53010;SDS011;42803;55.762;38.084;2023-04-01T04:22:56;17.73;;;8.57;;
53010;SDS011;42803;55.762;38.084;2023-04-01T04:25:25;18.77;;;8.88;;
53010;SDS011;42803;55.762;38.084;2023-04-01T04:27:55;21.27;;;9.75;;
53010;SDS011;42803;55.762;38.084;2023-04-01T04:30:24;16.10;;;7.07;;
53010;SDS011;42803;55.762;38.084;2023-04-01T04:32:53;17.85;;;8.55;;
53010;SDS011;42803;55.762;38.084;2023-04-01T04:35:22;20.70;;;9.00;;
53010;SDS011;42803;55.762;38.084;2023-04-01T04:37:52;21.95;;;9.63;;
53010;SDS011;42803;55.762;38.084;2023-04-01T04:40:21;20.95;;;9.73;;
53010;SDS011;42803;55.762;38.084;2023-04-01T04:42:50;23.92;;;8.65;;
53010;SDS011;42803;55.762;38.084;2023-04-01T04:45:20;21.88;;;8.98;;
53010;SDS011;42803;55.762;38.084;2023-04-01T04:47:54;21.27;;;9.18;;
53010;SDS011;42803;55.762;38.084;2023-04-01T04:50:23;19.63;;;9.10;;
53010;SDS011;42803;55.762;38.084;2023-04-01T04:52:53;17.50;;;8.82;;
53010;SDS011;42803;55.762;38.084;2023-04-01T04:55:22;18.35;;;8.35;;
53010;SDS011;42803;55.762;38.084;2023-04-01T04:58:10;19.67;;;8.57;;
53010;SDS011;42803;55.762;38.084;2023-04-01T05:00:43;17.80;;;8.55;;
53010;SDS011;42803;55.762;38.084;2023-04-01T05:03:20;21.63;;;8.98;;
53010;SDS011;42803;55.762;38.084;2023-04-01T05:05:50;21.00;;;9.45;;
53010;SDS011;42803;55.762;38.084;2023-04-01T05:08:22;19.90;;;9.57;;
53010;SDS011;42803;55.762;38.084;2023-04-01T05:10:51;18.02;;;8.75;;
53010;SDS011;42803;55.762;38.084;2023-04-01T05:13:20;22.67;;;9.20;;
53010;SDS011;42803;55.762;38.084;2023-04-01T05:15:51;15.57;;;8.48;;
53010;SDS011;42803;55.762;38.084;2023-04-01T05:18:20;20.80;;;8.77;;
53010;SDS011;42803;55.762;38.084;2023-04-01T05:20:50;20.67;;;8.50;;
53010;SDS011;42803;55.762;38.084;2023-04-01T05:23:21;20.85;;;9.15;;
53010;SDS011;42803;55.762;38.084;2023-04-01T05:25:50;24.38;;;10.00;;
53010;SDS011;42803;55.762;38.084;2023-04-01T05:28:21;20.98;;;9.43;;
53010;SDS011;42803;55.762;38.084;2023-04-01T05:30:52;21.90;;;8.57;;
53010;SDS011;42803;55.762;38.084;2023-04-01T05:33:24;17.52;;;8.98;;
53010;SDS011;42803;55.762;38.084;2023-04-01T05:35:53;20.40;;;9.27;;
53010;SDS011;42803;55.762;38.084;2023-04-01T05:38:22;20.65;;;8.25;;
53010;SDS011;42803;55.762;38.084;2023-04-01T05:40:51;18.88;;;9.48;;
53010;SDS011;42803;55.762;38.084;2023-04-01T05:43:28;16.95;;;9.35;;
53010;SDS011;42803;55.762;38.084;2023-04-01T05:46:08;19.60;;;10.02;;
53010;SDS011;42803;55.762;38.084;2023-04-01T05:48:46;21.77;;;10.07;;
53010;SDS011;42803;55.762;38.084;2023-04-01T05:51:16;19.40;;;8.65;;
53010;SDS011;42803;55.762;38.084;2023-04-01T05:53:45;21.05;;;10.10;;
53010;SDS011;42803;55.762;38.084;2023-04-01T05:56:14;22.45;;;9.27;;
53010;SDS011;42803;55.762;38.084;2023-04-01T05:58:50;17.45;;;9.18;;
53010;SDS011;42803;55.762;38.084;2023-04-01T06:01:24;21.05;;;9.88;;
53010;SDS011;42803;55.762;38.084;2023-04-01T06:03:53;22.83;;;9.35;;
53010;SDS011;42803;55.762;38.084;2023-04-01T06:06:23;26.05;;;10.00;;
53010;SDS011;42803;55.762;38.084;2023-04-01T06:09:12;20.63;;;9.82;;
53010;SDS011;42803;55.762;38.084;2023-04-01T06:12:02;16.83;;;9.27;;
53010;SDS011;42803;55.762;38.084;2023-04-01T06:15:03;18.08;;;8.75;;
53010;SDS011;42803;55.762;38.084;2023-04-01T06:17:47;20.60;;;8.85;;
53010;SDS011;42803;55.762;38.084;2023-04-01T06:20:29;20.88;;;10.35;;
53010;SDS011;42803;55.762;38.084;2023-04-01T06:23:09;19.98;;;10.27;;
53010;SDS011;42803;55.762;38.084;2023-04-01T06:25:52;21.60;;;10.52;;
53010;SDS011;42803;55.762;38.084;2023-04-01T06:31:42;21.33;;;10.32;;
53010;SDS011;42803;55.762;38.084;2023-04-01T06:34:35;20.35;;;10.35;;
53010;SDS011;42803;55.762;38.084;2023-04-01T06:37:25;21.92;;;10.15;;
53010;SDS011;42803;55.762;38.084;2023-04-01T06:40:17;21.20;;;10.75;;
53010;SDS011;42803;55.762;38.084;2023-04-01T06:43:10;23.20;;;10.95;;
53010;SDS011;42803;55.762;38.084;2023-04-01T06:46:09;19.73;;;9.85;;
53010;SDS011;42803;55.762;38.084;2023-04-01T06:49:11;23.50;;;10.48;;
53010;SDS011;42803;55.762;38.084;2023-04-01T06:52:18;22.98;;;9.68;;
53010;SDS011;42803;55.762;38.084;2023-04-01T06:55:18;20.85;;;8.13;;
53010;SDS011;42803;55.762;38.084;2023-04-01T06:58:18;19.88;;;9.48;;
53010;SDS011;42803;55.762;38.084;2023-04-01T07:00:50;19.73;;;9.90;;
53010;SDS011;42803;55.762;38.084;2023-04-01T07:03:23;19.90;;;10.07;;
53010;SDS011;42803;55.762;38.084;2023-04-01T07:06:02;20.42;;;10.32;;
53010;SDS011;42803;55.762;38.084;2023-04-01T07:08:40;18.60;;;9.90;;
53010;SDS011;42803;55.762;38.084;2023-04-01T07:11:15;25.30;;;10.88;;
53010;SDS011;42803;55.762;38.084;2023-04-01T07:14:24;22.55;;;10.38;;
53010;SDS011;42803;55.762;38.084;2023-04-01T07:16:59;21.23;;;10.40;;
53010;SDS011;42803;55.762;38.084;2023-04-01T07:19:35;18.90;;;10.25;;
53010;SDS011;42803;55.762;38.084;2023-04-01T07:22:14;24.05;;;11.02;;
53010;SDS011;42803;55.762;38.084;2023-04-01T07:25:05;21.80;;;10.25;;
53010;SDS011;42803;55.762;38.084;2023-04-01T07:27:42;23.30;;;10.75;;
53010;SDS011;42803;55.762;38.084;2023-04-01T07:30:13;20.35;;;9.95;;
53010;SDS011;42803;55.762;38.084;2023-04-01T07:32:46;22.90;;;11.25;;
53010;SDS011;42803;55.762;38.084;2023-04-01T07:35:22;23.38;;;10.57;;
53010;SDS011;42803;55.762;38.084;2023-04-01T07:37:59;19.05;;;10.32;;
53010;SDS011;42803;55.762;38.084;2023-04-01T07:40:43;19.35;;;10.15;;
53010;SDS011;42803;55.762;38.084;2023-04-01T07:43:21;22.60;;;10.98;;
53010;SDS011;42803;55.762;38.084;2023-04-01T07:46:22;24.25;;;10.80;;
53010;SDS011;42803;55.762;38.084;2023-04-01T07:49:09;19.13;;;10.38;;
53010;SDS011;42803;55.762;38.084;2023-04-01T07:51:45;20.17;;;10.35;;
53010;SDS011;42803;55.762;38.084;2023-04-01T07:54:28;20.92;;;9.82;;
53010;SDS011;42803;55.762;38.084;2023-04-01T07:57:09;18.40;;;9.70;;
53010;SDS011;42803;55.762;38.084;2023-04-01T07:59:54;20.50;;;10.40;;
53010;SDS011;42803;55.762;38.084;2023-04-01T08:02:54;22.88;;;11.73;;
53010;SDS011;42803;55.762;38.084;2023-04-01T08:05:40;22.52;;;10.23;;
53010;SDS011;42803;55.762;38.084;2023-04-01T08:08:18;17.27;;;9.60;;
53010;SDS011;42803;55.762;38.084;2023-04-01T08:11:14;20.08;;;9.75;;
53010;SDS011;42803;55.762;38.084;2023-04-01T08:14:18;22.30;;;10.52;;
53010;SDS011;42803;55.762;38.084;2023-04-01T08:17:13;19.30;;;10.25;;
53010;SDS011;42803;55.762;38.084;2023-04-01T08:19:54;17.38;;;9.68;;
53010;SDS011;42803;55.762;38.084;2023-04-01T08:22:33;19.48;;;10.43;;
53010;SDS011;42803;55.762;38.084;2023-04-01T08:25:32;18.95;;;9.43;;
53010;SDS011;42803;55.762;38.084;2023-04-01T08:28:09;22.63;;;10.50;;
53010;SDS011;42803;55.762;38.084;2023-04-01T08:30:47;19.23;;;10.20;;
53010;SDS011;42803;55.762;38.084;2023-04-01T08:33:21;18.02;;;10.32;;
53010;SDS011;42803;55.762;38.084;2023-04-01T08:36:02;19.15;;;10.35;;
53010;SDS011;42803;55.762;38.084;2023-04-01T08:38:38;19.17;;;10.73;;
53010;SDS011;42803;55.762;38.084;2023-04-01T08:47:20;16.88;;;9.10;;
53010;SDS011;42803;55.762;38.084;2023-04-01T08:50:12;16.05;;;9.00;;
53010;SDS011;42803;55.762;38.084;2023-04-01T08:53:20;16.08;;;8.93;;
53010;SDS011;42803;55.762;38.084;2023-04-01T08:56:03;18.45;;;8.75;;
53010;SDS011;42803;55.762;38.084;2023-04-01T09:01:48;15.88;;;8.63;;
53010;SDS011;42803;55.762;38.084;2023-04-01T09:08:24;20.98;;;9.57;;
53010;SDS011;42803;55.762;38.084;2023-04-01T09:11:04;16.52;;;8.35;;
53010;SDS011;42803;55.762;38.084;2023-04-01T09:14:02;15.73;;;8.40;;
53010;SDS011;42803;55.762;38.084;2023-04-01T09:20:09;34.35;;;14.70;;
53010;SDS011;42803;55.762;38.084;2023-04-01T09:23:10;14.85;;;8.77;;
53010;SDS011;42803;55.762;38.084;2023-04-01T09:26:04;15.05;;;9.02;;
53010;SDS011;42803;55.762;38.084;2023-04-01T09:28:47;14.93;;;9.43;;
53010;SDS011;42803;55.762;38.084;2023-04-01T09:31:37;15.15;;;9.27;;
53010;SDS011;42803;55.762;38.084;2023-04-01T09:37:33;15.32;;;8.88;;
53010;SDS011;42803;55.762;38.084;2023-04-01T09:40:15;15.23;;;8.32;;
53010;SDS011;42803;55.762;38.084;2023-04-01T09:43:00;14.30;;;9.02;;
53010;SDS011;42803;55.762;38.084;2023-04-01T09:45:46;20.52;;;10.25;;
53010;SDS011;42803;55.762;38.084;2023-04-01T09:48:42;19.55;;;9.40;;
53010;SDS011;42803;55.762;38.084;2023-04-01T09:51:37;18.27;;;10.35;;
53010;SDS011;42803;55.762;38.084;2023-04-01T09:54:23;16.90;;;9.05;;
53010;SDS011;42803;55.762;38.084;2023-04-01T09:57:03;20.23;;;9.27;;
53010;SDS011;42803;55.762;38.084;2023-04-01T10:00:28;16.10;;;9.13;;
53010;SDS011;42803;55.762;38.084;2023-04-01T10:03:18;20.42;;;9.20;;
53010;SDS011;42803;55.762;38.084;2023-04-01T10:12:58;17.10;;;9.05;;
53010;SDS011;42803;55.762;38.084;2023-04-01T10:19:12;19.00;;;9.15;;
53010;SDS011;42803;55.762;38.084;2023-04-01T10:22:36;18.58;;;9.50;;
53010;SDS011;42803;55.762;38.084;2023-04-01T10:25:38;19.67;;;9.32;;
53010;SDS011;42803;55.762;38.084;2023-04-01T10:28:30;20.40;;;8.82;;
53010;SDS011;42803;55.762;38.084;2023-04-01T10:38:20;17.25;;;8.23;;
53010;SDS011;42803;55.762;38.084;2023-04-01T10:44:44;14.23;;;7.70;;
53010;SDS011;42803;55.762;38.084;2023-04-01T10:51:23;13.18;;;7.15;;
53010;SDS011;42803;55.762;38.084;2023-04-01T10:54:14;17.40;;;7.45;;
53010;SDS011;42803;55.762;38.084;2023-04-01T10:57:11;14.53;;;7.27;;
53010;SDS011;42803;55.762;38.084;2023-04-01T11:04:06;14.77;;;5.97;;
53010;SDS011;42803;55.762;38.084;2023-04-01T11:13:56;12.93;;;6.25;;
53010;SDS011;42803;55.762;38.084;2023-04-01T11:16:53;10.20;;;5.72;;
53010;SDS011;42803;55.762;38.084;2023-04-01T11:22:50;7.70;;;4.50;;
53010;SDS011;42803;55.762;38.084;2023-04-01T11:25:41;8.90;;;5.20;;
53010;SDS011;42803;55.762;38.084;2023-04-01T11:29:05;14.30;;;5.10;;
53010;SDS011;42803;55.762;38.084;2023-04-01T11:32:13;10.85;;;5.20;;
53010;SDS011;42803;55.762;38.084;2023-04-01T11:34:57;9.30;;;4.50;;
53010;SDS011;42803;55.762;38.084;2023-04-01T11:37:41;9.73;;;4.93;;
53010;SDS011;42803;55.762;38.084;2023-04-01T11:40:58;10.43;;;4.57;;
53010;SDS011;42803;55.762;38.084;2023-04-01T11:44:18;10.65;;;4.95;;
53010;SDS011;42803;55.762;38.084;2023-04-01T11:47:13;5.22;;;3.33;;
53010;SDS011;42803;55.762;38.084;2023-04-01T11:49:59;8.10;;;3.95;;
53010;SDS011;42803;55.762;38.084;2023-04-01T11:53:09;6.28;;;3.90;;
53010;SDS011;42803;55.762;38.084;2023-04-01T11:55:50;8.00;;;5.32;;
53010;SDS011;42803;55.762;38.084;2023-04-01T12:01:31;6.65;;;4.32;;
53010;SDS011;42803;55.762;38.084;2023-04-01T12:04:17;8.93;;;3.72;;
53010;SDS011;42803;55.762;38.084;2023-04-01T12:07:12;7.30;;;4.00;;
53010;SDS011;42803;55.762;38.084;2023-04-01T12:09:49;7.95;;;3.72;;
53010;SDS011;42803;55.762;38.084;2023-04-01T12:12:27;9.10;;;4.28;;
53010;SDS011;42803;55.762;38.084;2023-04-01T12:15:21;9.95;;;3.90;;
53010;SDS011;42803;55.762;38.084;2023-04-01T12:18:00;9.02;;;4.07;;
53010;SDS011;42803;55.762;38.084;2023-04-01T12:20:42;6.80;;;3.53;;
53010;SDS011;42803;55.762;38.084;2023-04-01T12:23:32;6.90;;;3.75;;
53010;SDS011;42803;55.762;38.084;2023-04-01T12:32:24;8.55;;;4.07;;
53010;SDS011;42803;55.762;38.084;2023-04-01T12:35:03;7.25;;;3.80;;
53010;SDS011;42803;55.762;38.084;2023-04-01T12:37:46;7.57;;;3.90;;
53010;SDS011;42803;55.762;38.084;2023-04-01T12:40:27;6.65;;;3.85;;
53010;SDS011;42803;55.762;38.084;2023-04-01T12:43:14;7.43;;;4.15;;
53010;SDS011;42803;55.762;38.084;2023-04-01T12:45:59;8.23;;;4.38;;
53010;SDS011;42803;55.762;38.084;2023-04-01T12:49:00;8.35;;;4.35;;
53010;SDS011;42803;55.762;38.084;2023-04-01T12:51:55;9.20;;;4.05;;
53010;SDS011;42803;55.762;38.084;2023-04-01T13:00:46;8.65;;;3.92;;
53010;SDS011;42803;55.762;38.084;2023-04-01T13:03:37;8.23;;;4.25;;
53010;SDS011;42803;55.762;38.084;2023-04-01T13:06:22;8.82;;;4.30;;
53010;SDS011;42803;55.762;38.084;2023-04-01T13:09:01;8.15;;;4.32;;
53010;SDS011;42803;55.762;38.084;2023-04-01T13:14:44;9.32;;;4.47;;
53010;SDS011;42803;55.762;38.084;2023-04-01T13:17:36;9.55;;;4.80;;
53010;SDS011;42803;55.762;38.084;2023-04-01T13:20:15;7.78;;;5.25;;
53010;SDS011;42803;55.762;38.084;2023-04-01T13:22:57;9.63;;;4.63;;
53010;SDS011;42803;55.762;38.084;2023-04-01T13:25:41;15.02;;;4.68;;
53010;SDS011;42803;55.762;38.084;2023-04-01T13:28:23;7.10;;;4.00;;
53010;SDS011;42803;55.762;38.084;2023-04-01T13:30:56;7.53;;;4.00;;
53010;SDS011;42803;55.762;38.084;2023-04-01T13:33:32;7.78;;;4.63;;
53010;SDS011;42803;55.762;38.084;2023-04-01T13:36:14;9.80;;;4.18;;
53010;SDS011;42803;55.762;38.084;2023-04-01T13:38:59;6.75;;;3.78;;
53010;SDS011;42803;55.762;38.084;2023-04-01T13:41:45;6.53;;;3.30;;
53010;SDS011;42803;55.762;38.084;2023-04-01T13:44:25;8.88;;;3.78;;
53010;SDS011;42803;55.762;38.084;2023-04-01T13:47:11;6.32;;;4.10;;
53010;SDS011;42803;55.762;38.084;2023-04-01T13:52:55;6.82;;;4.20;;
53010;SDS011;42803;55.762;38.084;2023-04-01T13:55:44;8.02;;;4.07;;
53010;SDS011;42803;55.762;38.084;2023-04-01T13:58:27;8.50;;;3.70;;
53010;SDS011;42803;55.762;38.084;2023-04-01T14:01:15;10.00;;;3.90;;
53010;SDS011;42803;55.762;38.084;2023-04-01T14:04:00;8.80;;;4.35;;
53010;SDS011;42803;55.762;38.084;2023-04-01T14:06:45;11.18;;;4.13;;
53010;SDS011;42803;55.762;38.084;2023-04-01T14:09:30;9.18;;;4.57;;
53010;SDS011;42803;55.762;38.084;2023-04-01T14:12:16;12.07;;;4.75;;
53010;SDS011;42803;55.762;38.084;2023-04-01T14:15:10;11.18;;;5.15;;
53010;SDS011;42803;55.762;38.084;2023-04-01T14:20:33;9.13;;;5.32;;
53010;SDS011;42803;55.762;38.084;2023-04-01T14:26:18;10.82;;;5.43;;
53010;SDS011;42803;55.762;38.084;2023-04-01T14:28:59;9.40;;;4.53;;
53010;SDS011;42803;55.762;38.084;2023-04-01T14:34:38;8.45;;;3.95;;
53010;SDS011;42803;55.762;38.084;2023-04-01T14:37:23;8.38;;;4.10;;
53010;SDS011;42803;55.762;38.084;2023-04-01T14:40:15;8.27;;;4.20;;
53010;SDS011;42803;55.762;38.084;2023-04-01T14:42:59;8.30;;;4.40;;
53010;SDS011;42803;55.762;38.084;2023-04-01T14:45:45;9.88;;;3.90;;
53010;SDS011;42803;55.762;38.084;2023-04-01T14:48:27;7.78;;;4.40;;
53010;SDS011;42803;55.762;38.084;2023-04-01T14:51:03;9.57;;;3.75;;
53010;SDS011;42803;55.762;38.084;2023-04-01T14:53:38;7.28;;;4.13;;
53010;SDS011;42803;55.762;38.084;2023-04-01T14:56:13;7.05;;;4.25;;
53010;SDS011;42803;55.762;38.084;2023-04-01T15:01:41;8.80;;;4.65;;
53010;SDS011;42803;55.762;38.084;2023-04-01T15:04:23;11.43;;;4.93;;
53010;SDS011;42803;55.762;38.084;2023-04-01T15:07:19;9.43;;;5.18;;
53010;SDS011;42803;55.762;38.084;2023-04-01T15:10:02;9.07;;;4.78;;
53010;SDS011;42803;55.762;38.084;2023-04-01T15:12:42;8.38;;;4.72;;
53010;SDS011;42803;55.762;38.084;2023-04-01T15:15:22;8.50;;;4.70;;
53010;SDS011;42803;55.762;38.084;2023-04-01T15:20:55;8.60;;;4.55;;
53010;SDS011;42803;55.762;38.084;2023-04-01T15:23:37;8.13;;;4.30;;
53010;SDS011;42803;55.762;38.084;2023-04-01T15:26:20;6.38;;;4.22;;
53010;SDS011;42803;55.762;38.084;2023-04-01T15:29:01;11.07;;;4.70;;
53010;SDS011;42803;55.762;38.084;2023-04-01T15:31:42;8.60;;;5.27;;
53010;SDS011;42803;55.762;38.084;2023-04-01T15:34:22;11.07;;;5.25;;
53010;SDS011;42803;55.762;38.084;2023-04-01T15:37:02;9.45;;;5.47;;
53010;SDS011;42803;55.762;38.084;2023-04-01T15:39:43;10.82;;;6.22;;
53010;SDS011;42803;55.762;38.084;2023-04-01T15:42:30;12.40;;;5.78;;
53010;SDS011;42803;55.762;38.084;2023-04-01T15:45:17;10.23;;;6.05;;
53010;SDS011;42803;55.762;38.084;2023-04-01T15:48:05;11.80;;;6.53;;
53010;SDS011;42803;55.762;38.084;2023-04-01T15:50:54;13.50;;;6.28;;
53010;SDS011;42803;55.762;38.084;2023-04-01T15:54:00;10.55;;;6.55;;
53010;SDS011;42803;55.762;38.084;2023-04-01T15:56:53;12.90;;;6.50;;
53010;SDS011;42803;55.762;38.084;2023-04-01T15:59:39;17.70;;;9.88;;
53010;SDS011;42803;55.762;38.084;2023-04-01T16:02:21;12.57;;;6.30;;
53010;SDS011;42803;55.762;38.084;2023-04-01T16:05:00;15.43;;;7.00;;
53010;SDS011;42803;55.762;38.084;2023-04-01T16:07:42;14.82;;;7.20;;
53010;SDS011;42803;55.762;38.084;2023-04-01T16:10:27;14.60;;;6.40;;
53010;SDS011;42803;55.762;38.084;2023-04-01T16:13:13;14.18;;;7.05;;
53010;SDS011;42803;55.762;38.084;2023-04-01T16:15:59;13.55;;;7.22;;
53010;SDS011;42803;55.762;38.084;2023-04-01T16:18:45;11.38;;;7.50;;
53010;SDS011;42803;55.762;38.084;2023-04-01T16:21:36;15.15;;;8.05;;
53010;SDS011;42803;55.762;38.084;2023-04-01T16:24:17;22.75;;;8.07;;
53010;SDS011;42803;55.762;38.084;2023-04-01T16:26:53;15.45;;;9.13;;
53010;SDS011;42803;55.762;38.084;2023-04-01T16:29:27;15.63;;;9.00;;
53010;SDS011;42803;55.762;38.084;2023-04-01T16:35:20;14.82;;;9.50;;
53010;SDS011;42803;55.762;38.084;2023-04-01T16:37:58;22.25;;;9.98;;
53010;SDS011;42803;55.762;38.084;2023-04-01T16:43:30;17.45;;;10.02;;
53010;SDS011;42803;55.762;38.084;2023-04-01T16:49:14;19.58;;;10.40;;
53010;SDS011;42803;55.762;38.084;2023-04-01T16:51:53;18.73;;;10.45;;
53010;SDS011;42803;55.762;38.084;2023-04-01T16:54:28;17.52;;;9.30;;
53010;SDS011;42803;55.762;38.084;2023-04-01T16:57:03;17.98;;;10.23;;
53010;SDS011;42803;55.762;38.084;2023-04-01T16:59:46;16.20;;;10.38;;
53010;SDS011;42803;55.762;38.084;2023-04-01T17:02:23;17.02;;;9.82;;
53010;SDS011;42803;55.762;38.084;2023-04-01T17:04:58;18.60;;;9.60;;
53010;SDS011;42803;55.762;38.084;2023-04-01T17:07:34;19.60;;;9.80;;
53010;SDS011;42803;55.762;38.084;2023-04-01T17:10:31;15.75;;;9.50;;
53010;SDS011;42803;55.762;38.084;2023-04-01T17:16:21;14.43;;;9.30;;
53010;SDS011;42803;55.762;38.084;2023-04-01T17:19:10;14.98;;;9.20;;
53010;SDS011;42803;55.762;38.084;2023-04-01T17:21:55;15.63;;;8.75;;
53010;SDS011;42803;55.762;38.084;2023-04-01T17:24:37;14.55;;;8.57;;
53010;SDS011;42803;55.762;38.084;2023-04-01T17:27:26;16.38;;;9.52;;
53010;SDS011;42803;55.762;38.084;2023-04-01T17:33:16;15.80;;;8.35;;
53010;SDS011;42803;55.762;38.084;2023-04-01T17:36:08;14.45;;;7.93;;